createdAt,value
2018-07-08T00:01:05.800Z,12.80
2018-07-08T00:03:34.122Z,12.80
2018-07-08T00:06:13.945Z,12.70
2018-07-08T00:08:42.624Z,12.60
2018-07-08T00:11:14.450Z,12.60
2018-07-08T00:13:49.045Z,12.50
2018-07-08T00:16:17.350Z,12.50
2018-07-08T00:18:50.763Z,12.50
2018-07-08T00:21:25.436Z,12.40
2018-07-08T00:23:53.726Z,12.40
2018-07-08T00:26:24.994Z,12.30
2018-07-08T00:28:59.531Z,12.30
2018-07-08T00:31:31.847Z,12.30
2018-07-08T00:34:03.344Z,12.20
2018-07-08T00:36:37.899Z,12.20
2018-07-08T00:39:10.763Z,12.20
2018-07-08T00:41:38.975Z,12.10
2018-07-08T00:44:13.723Z,12.10
2018-07-08T00:46:42.101Z,12.00
2018-07-08T00:49:15.326Z,12.00
2018-07-08T00:51:47.827Z,11.90
2018-07-08T00:54:21.686Z,11.90
2018-07-08T00:56:50.038Z,11.90
2018-07-08T00:59:18.227Z,11.90
2018-07-08T01:04:18.064Z,11.80
2018-07-08T01:06:49.575Z,11.80
2018-07-08T01:09:20.950Z,11.70
2018-07-08T01:12:01.759Z,11.70
2018-07-08T01:14:34.973Z,11.70
2018-07-08T01:17:08.093Z,11.60
2018-07-08T01:19:36.618Z,11.60
2018-07-08T01:22:06.819Z,11.60
2018-07-08T01:24:35.234Z,11.50
2018-07-08T01:27:03.453Z,11.50
2018-07-08T01:29:36.350Z,11.50
2018-07-08T01:32:04.827Z,11.50
2018-07-08T01:34:33.116Z,11.50
2018-07-08T01:37:06.308Z,11.40
2018-07-08T01:39:37.309Z,11.40
2018-07-08T01:42:08.105Z,11.40
2018-07-08T01:44:40.734Z,11.30
2018-07-08T01:47:20.925Z,11.30
2018-07-08T01:49:56.442Z,11.30
2018-07-08T01:54:55.979Z,11.30
2018-07-08T01:57:27.174Z,11.20
2018-07-08T01:59:59.729Z,11.20
2018-07-08T02:02:28.343Z,11.20
2018-07-08T02:04:56.647Z,11.20
2018-07-08T02:07:28.733Z,11.20
2018-07-08T02:10:11.640Z,11.10
2018-07-08T02:12:40.049Z,11.10
2018-07-08T02:15:12.634Z,11.10
2018-07-08T02:17:40.962Z,11.10
2018-07-08T02:20:11.496Z,11.10
2018-07-08T02:22:39.870Z,11.00
2018-07-08T02:27:42.451Z,11.00
2018-07-08T02:30:18.458Z,11.00
2018-07-08T02:32:46.679Z,10.90
2018-07-08T02:35:22.964Z,10.90
2018-07-08T02:37:56.541Z,10.90
2018-07-08T02:40:31.080Z,10.90
2018-07-08T02:43:04.387Z,10.90
2018-07-08T02:45:39.010Z,10.90
2018-07-08T02:48:10.426Z,10.80
2018-07-08T02:50:41.189Z,10.80
2018-07-08T02:53:09.588Z,10.80
2018-07-08T02:55:37.841Z,10.80
2018-07-08T03:00:41.350Z,10.80
2018-07-08T03:03:16.379Z,10.70
2018-07-08T03:05:44.672Z,10.70
2018-07-08T03:08:19.486Z,10.70
2018-07-08T03:13:22.199Z,10.70
2018-07-08T03:15:55.111Z,10.60
2018-07-08T03:18:25.400Z,10.70
2018-07-08T03:20:53.669Z,10.70
2018-07-08T03:23:24.823Z,10.80
2018-07-08T03:25:57.338Z,10.70
2018-07-08T03:28:37.278Z,10.70
2018-07-08T03:31:05.505Z,10.70
2018-07-08T03:33:37.310Z,10.70
2018-07-08T03:36:05.954Z,10.70
2018-07-08T03:38:37.215Z,10.70
2018-07-08T03:41:05.587Z,10.80
2018-07-08T03:43:33.942Z,10.80
2018-07-08T03:46:02.289Z,10.80
2018-07-08T03:48:39.921Z,10.80
2018-07-08T03:51:08.116Z,10.90
2018-07-08T03:53:41.672Z,10.80
2018-07-08T03:56:16.465Z,10.90
2018-07-08T03:58:44.719Z,10.90
2018-07-08T04:01:17.192Z,10.90
2018-07-08T04:03:48.207Z,11.00
2018-07-08T04:06:28.328Z,11.00
2018-07-08T04:08:56.553Z,11.10
2018-07-08T04:11:24.807Z,11.10
2018-07-08T04:13:57.822Z,11.10
2018-07-08T04:19:13.676Z,11.20
2018-07-08T04:21:41.906Z,11.20
2018-07-08T04:24:10.543Z,11.20
2018-07-08T04:26:38.734Z,11.40
2018-07-08T04:29:13.158Z,11.50
2018-07-08T04:31:47.816Z,11.60
2018-07-08T04:34:16.072Z,11.60
2018-07-08T04:36:50.847Z,11.80
2018-07-08T04:39:19.067Z,11.90
2018-07-08T04:44:27.488Z,12.00
2018-07-08T04:46:57.956Z,12.10
2018-07-08T04:49:32.740Z,12.20
2018-07-08T04:52:07.414Z,12.30
2018-07-08T04:54:35.873Z,12.30
2018-07-08T04:57:06.754Z,12.40
2018-07-08T04:59:35.048Z,12.50
2018-07-08T05:02:03.250Z,12.60
2018-07-08T05:04:34.418Z,12.70
2018-07-08T05:07:08.153Z,12.70
2018-07-08T05:09:50.194Z,12.80
2018-07-08T05:12:30.366Z,12.90
2018-07-08T05:14:58.836Z,13.00
2018-07-08T05:17:27.123Z,13.10
2018-07-08T05:19:55.398Z,13.20
2018-07-08T05:22:35.443Z,13.30
2018-07-08T05:25:06.813Z,13.40
2018-07-08T05:27:37.109Z,13.60
2018-07-08T05:32:39.397Z,13.70
2018-07-08T05:35:10.773Z,13.80
2018-07-08T05:37:49.169Z,13.80
2018-07-08T05:40:19.615Z,13.90
2018-07-08T05:42:50.800Z,13.90
2018-07-08T05:45:19.029Z,14.00
2018-07-08T05:47:54.569Z,14.10
2018-07-08T05:50:25.693Z,14.20
2018-07-08T05:53:05.551Z,14.30
2018-07-08T05:55:33.910Z,14.40
2018-07-08T05:58:07.375Z,14.60
2018-07-08T06:00:40.565Z,14.80
2018-07-08T06:03:12.217Z,15.00
2018-07-08T06:05:49.461Z,15.10
2018-07-08T06:08:20.906Z,15.30
2018-07-08T06:13:29.097Z,15.80
2018-07-08T06:15:59.862Z,16.00
2018-07-08T06:18:28.320Z,16.20
2018-07-08T06:23:30.962Z,16.70
2018-07-08T06:26:03.453Z,16.90
2018-07-08T06:28:35.953Z,17.10
2018-07-08T06:31:04.285Z,17.40
2018-07-08T06:33:37.289Z,17.90
2018-07-08T06:36:07.506Z,18.40
2018-07-08T06:38:35.844Z,18.90
2018-07-08T06:41:06.734Z,19.10
2018-07-08T06:43:36.955Z,19.20
2018-07-08T06:46:05.275Z,19.30
2018-07-08T06:48:38.704Z,19.40
2018-07-08T06:51:11.201Z,19.60
2018-07-08T06:53:42.307Z,19.90
2018-07-08T06:56:14.699Z,20.10
2018-07-08T06:58:46.277Z,20.40
2018-07-08T07:01:18.618Z,20.70
2018-07-08T07:03:52.634Z,20.80
2018-07-08T07:06:20.859Z,21.00
2018-07-08T07:08:56.302Z,21.10
2018-07-08T07:11:31.166Z,21.20
2018-07-08T07:13:59.426Z,20.90
2018-07-08T07:16:32.077Z,20.60
2018-07-08T07:19:00.277Z,20.40
2018-07-08T07:21:39.980Z,20.10
2018-07-08T07:24:08.224Z,20.10
2018-07-08T07:26:48.131Z,20.50
2018-07-08T07:29:18.608Z,21.00
2018-07-08T07:32:05.994Z,21.50
2018-07-08T07:34:37.978Z,21.40
2018-07-08T07:37:06.473Z,21.20
2018-07-08T07:39:34.746Z,21.30
2018-07-08T07:42:07.869Z,21.40
2018-07-08T07:44:47.947Z,21.40
2018-07-08T07:47:16.259Z,21.30
2018-07-08T07:49:44.531Z,21.40
2018-07-08T07:52:19.289Z,21.40
2018-07-08T07:54:47.558Z,21.10
2018-07-08T07:57:29.613Z,21.00
2018-07-08T08:00:01.879Z,21.20
2018-07-08T08:02:32.322Z,21.00
2018-07-08T08:05:00.779Z,20.90
2018-07-08T08:07:29.044Z,21.10
2018-07-08T08:09:57.255Z,21.70
2018-07-08T08:12:31.888Z,22.30
2018-07-08T08:15:06.915Z,22.60
2018-07-08T08:17:46.980Z,22.40
2018-07-08T08:20:15.359Z,22.40
2018-07-08T08:22:43.645Z,22.90
2018-07-08T08:25:18.241Z,23.30
2018-07-08T08:27:46.533Z,23.50
2018-07-08T08:30:17.765Z,24.00
2018-07-08T08:32:48.223Z,24.20
2018-07-08T08:35:20.387Z,24.40
2018-07-08T08:37:52.142Z,24.50
2018-07-08T08:40:29.122Z,24.70
2018-07-08T08:42:57.447Z,24.80
2018-07-08T08:45:29.045Z,24.80
2018-07-08T08:47:57.302Z,24.90
2018-07-08T08:50:31.937Z,25.10
2018-07-08T08:53:00.651Z,25.30
2018-07-08T08:55:28.898Z,25.50
2018-07-08T08:58:01.739Z,25.90
2018-07-08T09:00:30.153Z,26.20
2018-07-08T09:02:58.636Z,26.30
2018-07-08T09:05:27.029Z,26.40
2018-07-08T09:07:55.261Z,26.20
2018-07-08T09:10:26.442Z,26.20
2018-07-08T09:13:01.978Z,26.30
2018-07-08T09:15:36.501Z,26.10
2018-07-08T09:18:09.704Z,25.70
2018-07-08T09:20:41.376Z,25.80
2018-07-08T09:23:09.694Z,25.90
2018-07-08T09:25:40.882Z,25.90
2018-07-08T09:28:09.216Z,25.90
2018-07-08T09:30:37.751Z,26.10
2018-07-08T09:33:05.992Z,26.20
2018-07-08T09:35:45.761Z,26.10
2018-07-08T09:38:14.103Z,26.10
2018-07-08T09:40:42.315Z,26.50
2018-07-08T09:43:16.936Z,26.60
2018-07-08T09:45:48.361Z,26.50
2018-07-08T09:48:20.944Z,26.70
2018-07-08T09:50:49.213Z,26.70
2018-07-08T09:53:24.685Z,26.70
2018-07-08T09:55:57.673Z,26.80
2018-07-08T09:58:28.126Z,26.90
2018-07-08T10:01:03.399Z,27.00
2018-07-08T10:03:33.274Z,27.00
2018-07-08T10:06:05.351Z,27.20
2018-07-08T10:08:36.382Z,27.40
2018-07-08T10:11:07.482Z,27.40
2018-07-08T10:13:38.696Z,27.30
2018-07-08T10:16:07.030Z,27.20
2018-07-08T10:18:35.290Z,27.30
2018-07-08T10:21:12.175Z,27.00
2018-07-08T10:23:40.463Z,26.70
2018-07-08T10:26:10.935Z,27.00
2018-07-08T10:28:39.278Z,27.30
2018-07-08T10:31:11.150Z,27.50
2018-07-08T10:33:56.061Z,27.60
2018-07-08T10:36:31.631Z,27.60
2018-07-08T10:39:04.127Z,27.40
2018-07-08T10:41:32.353Z,27.60
2018-07-08T10:44:03.439Z,27.90
2018-07-08T10:46:31.914Z,28.00
2018-07-08T10:48:59.965Z,27.90
2018-07-08T10:51:34.720Z,27.90
2018-07-08T10:54:03.150Z,28.00
2018-07-08T10:56:31.429Z,28.00
2018-07-08T10:59:02.605Z,27.80
2018-07-08T11:01:37.222Z,27.70
2018-07-08T11:04:09.924Z,27.80
2018-07-08T11:06:42.389Z,27.70
2018-07-08T11:09:10.865Z,27.70
2018-07-08T11:11:46.356Z,27.50
2018-07-08T11:14:14.682Z,27.60
2018-07-08T11:16:56.760Z,27.80
2018-07-08T11:19:30.304Z,27.80
2018-07-08T11:22:02.802Z,27.90
2018-07-08T11:24:37.341Z,27.90
2018-07-08T11:27:08.516Z,28.10
2018-07-08T11:29:36.755Z,28.30
2018-07-08T11:32:05.312Z,28.50
2018-07-08T11:34:33.632Z,28.40
2018-07-08T11:37:01.806Z,28.20
2018-07-08T11:39:33.158Z,27.90
2018-07-08T11:42:03.490Z,27.90
2018-07-08T11:44:35.140Z,28.00
2018-07-08T11:47:10.022Z,28.20
2018-07-08T11:49:38.253Z,28.40
2018-07-08T11:52:11.426Z,28.40
2018-07-08T11:54:45.788Z,28.50
2018-07-08T11:57:26.552Z,28.40
2018-07-08T12:00:03.198Z,28.60
2018-07-08T12:02:31.462Z,28.30
2018-07-08T12:05:00.308Z,28.20
2018-07-08T12:07:28.506Z,28.30
2018-07-08T12:09:56.931Z,28.20
2018-07-08T12:12:38.971Z,28.40
2018-07-08T12:15:19.180Z,28.60
2018-07-08T12:17:50.274Z,28.80
2018-07-08T12:20:22.364Z,28.90
2018-07-08T12:23:02.551Z,28.90
2018-07-08T12:25:31.032Z,29.00
2018-07-08T12:28:09.358Z,29.10
2018-07-08T12:30:37.715Z,29.20
2018-07-08T12:33:08.260Z,29.30
2018-07-08T12:35:36.480Z,29.30
2018-07-08T12:38:10.219Z,29.20
2018-07-08T12:40:38.478Z,29.10
2018-07-08T12:43:10.894Z,28.60
2018-07-08T12:45:43.291Z,28.60
2018-07-08T12:48:18.401Z,28.60
2018-07-08T12:50:48.767Z,28.90
2018-07-08T12:53:19.233Z,29.00
2018-07-08T12:55:49.793Z,28.90
2018-07-08T12:58:27.991Z,28.90
2018-07-08T13:00:56.349Z,28.70
2018-07-08T13:03:24.677Z,28.60
2018-07-08T13:05:57.273Z,28.30
2018-07-08T13:08:25.642Z,28.30
2018-07-08T13:10:59.084Z,28.40
2018-07-08T13:13:33.671Z,28.20
2018-07-08T13:16:01.958Z,28.10
2018-07-08T13:18:37.406Z,28.10
2018-07-08T13:21:08.671Z,28.50
2018-07-08T13:23:43.379Z,28.50
2018-07-08T13:26:21.309Z,28.60
2018-07-08T13:28:54.863Z,28.60
2018-07-08T13:31:27.522Z,28.60
2018-07-08T13:34:02.045Z,28.60
2018-07-08T13:36:41.725Z,28.60
2018-07-08T13:39:10.992Z,28.50
2018-07-08T13:41:50.881Z,28.40
2018-07-08T13:44:23.518Z,28.30
2018-07-08T13:46:54.502Z,28.20
2018-07-08T13:49:23.131Z,28.40
2018-07-08T13:51:51.440Z,28.60
2018-07-08T13:54:19.607Z,28.80
2018-07-08T13:56:54.368Z,28.90
2018-07-08T13:59:22.628Z,28.70
2018-07-08T14:01:56.032Z,28.70
2018-07-08T14:04:32.757Z,28.60
2018-07-08T14:07:01.022Z,28.40
2018-07-08T14:09:46.044Z,28.20
2018-07-08T14:12:18.338Z,28.10
2018-07-08T14:14:46.762Z,28.20
2018-07-08T14:17:15.038Z,28.30
2018-07-08T14:19:43.261Z,28.00
2018-07-08T14:22:18.562Z,27.90
2018-07-08T14:24:51.617Z,28.10
2018-07-08T14:27:19.846Z,28.30
2018-07-08T14:29:48.445Z,28.50
2018-07-08T14:32:16.707Z,28.60
2018-07-08T14:34:52.421Z,28.60
2018-07-08T14:37:20.715Z,28.50
2018-07-08T14:39:54.066Z,28.20
2018-07-08T14:42:31.066Z,27.80
2018-07-08T14:45:02.656Z,27.90
2018-07-08T14:47:35.995Z,27.90
2018-07-08T14:50:06.894Z,28.00
2018-07-08T14:52:41.450Z,28.10
2018-07-08T14:55:12.589Z,28.10
2018-07-08T14:57:44.919Z,28.10
2018-07-08T15:00:25.829Z,28.10
2018-07-08T15:02:54.173Z,28.10
2018-07-08T15:05:28.831Z,28.10
2018-07-08T15:07:57.113Z,28.00
2018-07-08T15:10:29.500Z,27.60
2018-07-08T15:13:02.241Z,27.60
2018-07-08T15:15:30.542Z,27.50
2018-07-08T15:18:05.868Z,27.60
2018-07-08T15:20:40.566Z,27.50
2018-07-08T15:23:08.744Z,27.60
2018-07-08T15:25:43.330Z,27.60
2018-07-08T15:28:16.242Z,27.40
2018-07-08T15:30:44.565Z,27.20
2018-07-08T15:33:13.125Z,27.20
2018-07-08T15:35:49.949Z,27.30
2018-07-08T15:41:05.547Z,27.50
2018-07-08T15:43:35.912Z,27.40
2018-07-08T15:46:04.300Z,27.20
2018-07-08T15:48:32.551Z,27.00
2018-07-08T15:51:07.169Z,26.70
2018-07-08T15:53:35.387Z,26.70
2018-07-08T15:56:10.238Z,26.70
2018-07-08T15:58:38.546Z,26.70
2018-07-08T16:01:07.199Z,26.80
2018-07-08T16:03:35.529Z,26.80
2018-07-08T16:06:03.978Z,26.80
2018-07-08T16:08:35.272Z,26.90
2018-07-08T16:11:06.316Z,26.90
2018-07-08T16:13:36.857Z,26.90
2018-07-08T16:16:08.054Z,26.80
2018-07-08T16:18:36.320Z,26.50
2018-07-08T16:21:11.028Z,26.50
2018-07-08T16:23:39.235Z,26.30
2018-07-08T16:26:16.872Z,26.20
2018-07-08T16:28:45.149Z,26.20
2018-07-08T16:31:18.462Z,26.20
2018-07-08T16:33:56.953Z,26.20
2018-07-08T16:36:30.058Z,26.20
2018-07-08T16:39:06.592Z,26.20
2018-07-08T16:44:02.835Z,26.20
2018-07-08T16:46:36.361Z,26.20
2018-07-08T16:49:07.505Z,26.10
2018-07-08T16:51:39.902Z,26.00
2018-07-08T16:54:11.120Z,25.90
2018-07-08T16:56:42.236Z,25.80
2018-07-08T16:59:14.698Z,25.80
2018-07-08T17:01:49.261Z,25.60
2018-07-08T17:04:17.502Z,25.60
2018-07-08T17:06:48.170Z,25.50
2018-07-08T17:09:20.954Z,25.30
2018-07-08T17:11:49.404Z,25.00
2018-07-08T17:16:50.506Z,24.90
2018-07-08T17:19:18.841Z,24.80
2018-07-08T17:21:47.099Z,24.80
2018-07-08T17:24:18.190Z,24.50
2018-07-08T17:26:55.974Z,24.40
2018-07-08T17:29:27.291Z,24.30
2018-07-08T17:34:31.350Z,24.00
2018-07-08T17:37:09.192Z,24.00
2018-07-08T17:39:37.714Z,23.90
2018-07-08T17:42:06.100Z,23.90
2018-07-08T17:44:37.850Z,23.90
2018-07-08T17:47:14.012Z,24.00
2018-07-08T17:49:42.431Z,24.00
2018-07-08T17:52:10.682Z,23.80
2018-07-08T17:54:43.169Z,23.70
2018-07-08T17:57:15.769Z,23.50
2018-07-08T17:59:46.153Z,23.50
2018-07-08T18:02:14.530Z,23.50
2018-07-08T18:04:48.060Z,23.40
2018-07-08T18:07:16.280Z,23.30
2018-07-08T18:09:48.388Z,23.10
2018-07-08T18:12:18.984Z,23.00
2018-07-08T18:14:54.868Z,22.90
2018-07-08T18:17:23.695Z,22.90
2018-07-08T18:19:51.916Z,22.80
2018-07-08T18:22:23.122Z,22.60
2018-07-08T18:24:56.456Z,22.60
2018-07-08T18:30:02.579Z,22.60
2018-07-08T18:32:40.785Z,22.50
2018-07-08T18:35:11.183Z,22.50
2018-07-08T18:37:44.382Z,22.20
2018-07-08T18:40:13.067Z,22.20
2018-07-08T18:42:52.651Z,22.00
2018-07-08T18:45:26.009Z,21.90
2018-07-08T18:47:57.355Z,21.80
2018-07-08T18:50:27.963Z,21.70
2018-07-08T18:52:59.406Z,21.60
2018-07-08T18:55:33.762Z,21.50
2018-07-08T18:58:04.937Z,21.50
2018-07-08T19:00:33.152Z,21.40
2018-07-08T19:03:06.471Z,21.40
2018-07-08T19:05:34.739Z,21.30
2018-07-08T19:08:05.940Z,21.30
2018-07-08T19:10:34.429Z,21.20
2018-07-08T19:13:02.755Z,21.10
2018-07-08T19:15:30.999Z,21.00
2018-07-08T19:18:05.741Z,20.90
2018-07-08T19:20:33.987Z,20.80
2018-07-08T19:23:02.456Z,20.60
2018-07-08T19:25:43.406Z,20.50
2018-07-08T19:28:11.910Z,20.40
2018-07-08T19:30:40.433Z,20.30
2018-07-08T19:33:11.052Z,20.20
2018-07-08T19:35:39.559Z,20.10
2018-07-08T19:38:12.777Z,19.90
2018-07-08T19:40:41.414Z,19.80
2018-07-08T19:43:17.256Z,19.70
2018-07-08T19:45:55.375Z,19.70
2018-07-08T19:48:32.303Z,19.60
2018-07-08T19:51:00.741Z,19.50
2018-07-08T19:53:28.951Z,19.40
2018-07-08T19:56:02.698Z,19.30
2018-07-08T19:58:30.969Z,19.20
2018-07-08T20:01:11.270Z,19.10
2018-07-08T20:03:45.855Z,19.00
2018-07-08T20:06:20.606Z,18.90
2018-07-08T20:08:49.053Z,18.90
2018-07-08T20:11:17.348Z,18.80
2018-07-08T20:13:53.706Z,18.70
2018-07-08T20:16:29.454Z,18.70
2018-07-08T20:18:57.631Z,18.60
2018-07-08T20:21:30.913Z,18.50
2018-07-08T20:24:03.260Z,18.50
2018-07-08T20:26:37.455Z,18.40
2018-07-08T20:29:06.007Z,18.40
2018-07-08T20:31:36.515Z,18.30
2018-07-08T20:34:05.356Z,18.20
2018-07-08T20:36:42.977Z,18.20
2018-07-08T20:39:11.409Z,18.10
2018-07-08T20:41:44.482Z,18.10
2018-07-08T20:44:16.341Z,18.00
2018-07-08T20:46:53.042Z,17.90
2018-07-08T20:49:21.321Z,17.90
2018-07-08T20:51:52.451Z,17.80
2018-07-08T20:54:25.156Z,17.70
2018-07-08T20:57:00.641Z,17.60
2018-07-08T20:59:35.103Z,17.60
2018-07-08T21:04:44.253Z,17.40
2018-07-08T21:07:12.488Z,17.30
2018-07-08T21:09:45.151Z,17.20
2018-07-08T21:12:13.518Z,17.10
2018-07-08T21:14:51.351Z,17.00
2018-07-08T21:17:29.606Z,17.00
2018-07-08T21:20:00.207Z,16.90
2018-07-08T21:22:31.410Z,16.80
2018-07-08T21:24:59.679Z,16.70
2018-07-08T21:27:32.345Z,16.70
2018-07-08T21:30:00.669Z,16.60
2018-07-08T21:32:29.237Z,16.60
2018-07-08T21:34:57.945Z,16.50
2018-07-08T21:37:26.403Z,16.50
2018-07-08T21:39:54.917Z,16.40
2018-07-08T21:42:23.280Z,16.40
2018-07-08T21:44:51.628Z,16.40
2018-07-08T21:47:20.547Z,16.30
2018-07-08T21:49:48.900Z,16.20
2018-07-08T21:52:17.138Z,16.20
2018-07-08T21:54:51.635Z,16.10
2018-07-08T21:57:20.064Z,16.10
2018-07-08T21:59:54.293Z,16.00
2018-07-08T22:02:25.266Z,16.00
2018-07-08T22:04:53.501Z,15.90
2018-07-08T22:07:33.594Z,15.80
2018-07-08T22:10:03.897Z,15.80
2018-07-08T22:12:38.125Z,15.70
2018-07-08T22:15:06.384Z,15.70
2018-07-08T22:17:45.185Z,15.60
2018-07-08T22:20:13.495Z,15.50
2018-07-08T22:22:41.854Z,15.50
2018-07-08T22:25:10.189Z,15.50
2018-07-08T22:27:42.689Z,15.40
2018-07-08T22:30:16.428Z,15.30
2018-07-08T22:32:44.891Z,15.30
2018-07-08T22:35:13.290Z,15.20
2018-07-08T22:37:41.563Z,15.10
2018-07-08T22:40:15.003Z,15.10
2018-07-08T22:42:52.655Z,15.10
2018-07-08T22:45:20.948Z,15.00
2018-07-08T22:47:58.650Z,14.90
2018-07-08T22:50:26.893Z,14.90
2018-07-08T22:53:04.678Z,14.80
2018-07-08T22:55:35.121Z,14.80
2018-07-08T22:58:06.298Z,14.70
2018-07-08T23:00:50.188Z,14.70
2018-07-08T23:03:59.167Z,14.60
2018-07-08T23:06:30.360Z,14.60
2018-07-08T23:08:58.470Z,14.50
2018-07-08T23:11:29.640Z,14.50
2018-07-08T23:14:00.680Z,14.50
2018-07-08T23:16:40.589Z,14.40
2018-07-08T23:19:08.993Z,14.40
2018-07-08T23:21:40.203Z,14.30
2018-07-08T23:24:08.510Z,14.30
2018-07-08T23:26:41.996Z,14.30
2018-07-08T23:29:10.285Z,14.20
2018-07-08T23:31:41.976Z,14.20
2018-07-08T23:34:10.265Z,14.20
2018-07-08T23:36:41.352Z,14.10
2018-07-08T23:39:12.697Z,14.00
2018-07-08T23:41:41.353Z,14.00
2018-07-08T23:46:49.010Z,13.90
2018-07-08T23:49:17.742Z,13.80
2018-07-08T23:51:47.917Z,13.80
2018-07-08T23:54:16.265Z,13.80
2018-07-08T23:56:48.798Z,13.70
2018-07-08T23:59:17.018Z,13.60
